Time;durP1;ratioP1;P1;durP2;ratioP2;P2;SDS_P1;SDS_P2;PMS_P1;PMS_P2;Temp;Humidity;BMP_temperature;BMP_pressure;BME280_temperature;BME280_humidity;BME280_pressure;Samples;Min_cycle;Max_cycle;Signal;HPM_P1;HPM_P2
2023/06/23 00:01:56;;;;;;;;;;;;;;;28.21;54.17;100521.34;4967463;28;19914;-80
2023/06/23 00:04:48;;;;;;;;;;;;;;;28.27;54.01;100516.78;4972157;28;19913;-80
2023/06/23 00:07:38;;;;;;;;;;;;;;;28.26;54.01;100520.00;4965604;28;19915;-81
2023/06/23 00:10:30;;;;;;;;;;;;;;;28.24;54.31;100523.22;4958916;29;19914;-80
2023/06/23 00:13:22;;;;;;;;;;;;;;;28.16;54.66;100527.47;4965245;28;20308;-79
2023/06/23 00:16:14;;;;;;;;;;;;;;;28.20;54.39;100538.53;4951530;28;19914;-81
2023/06/23 00:19:06;;;;;;;;;;;;;;;28.15;54.54;100531.47;4977028;28;19913;-80
2023/06/23 00:21:56;;;;;;;;;;;;;;;28.19;54.53;100542.59;4986679;28;19922;-80
2023/06/23 00:24:48;;;;;;;;;;;;;;;28.13;54.86;100556.31;4978515;28;19914;-80
2023/06/23 00:27:44;;;;;;;;;;;;;;;28.04;54.91;100558.88;4980421;28;19914;-80
2023/06/23 00:30:37;;;;;;;;;;;;;;;27.97;55.36;100568.25;4963908;28;19915;-80
2023/06/23 00:33:29;;;;;;;;;;;;;;;27.93;55.44;100580.75;4948526;28;19914;-80
2023/06/23 00:36:21;;;;;;;;;;;;;;;27.89;55.07;100580.84;4958075;28;19914;-80
2023/06/23 00:39:11;;;;;;;;;;;;;;;27.88;55.22;100595.25;4964722;28;20555;-80
2023/06/23 00:42:03;;;;;;;;;;;;;;;27.92;55.19;100591.16;4981805;28;19914;-80
2023/06/23 00:44:55;;;;;;;;;;;;;;;27.93;54.41;100583.56;4945597;28;19925;-80
2023/06/23 00:47:45;;;;;;;;;;;;;;;27.88;54.79;100575.69;4950529;28;19921;-79
2023/06/23 00:50:35;;;;;;;;;;;;;;;27.92;54.55;100582.78;4978169;28;19914;-80
2023/06/23 00:53:29;;;;;;;;;;;;;;;27.91;54.75;100580.41;4977375;28;20189;-80
2023/06/23 00:56:24;;;;;;;;;;;;;;;27.86;54.83;100581.72;4953974;28;19918;-80
2023/06/23 00:59:16;;;;;;;;;;;;;;;27.87;54.40;100572.13;4971782;28;19917;-80
2023/06/23 01:02:06;;;;;;;;;;;;;;;27.88;54.57;100586.88;4989195;28;19914;-80
2023/06/23 01:04:58;;;;;;;;;;;;;;;27.90;54.22;100590.00;4988140;28;19914;-80
2023/06/23 01:07:53;;;;;;;;;;;;;;;27.87;54.02;100593.69;4980625;28;19914;-80
2023/06/23 01:10:53;;;;;;;;;;;;;;;27.82;54.02;100603.38;4995602;28;19913;-80
2023/06/23 01:13:49;;;;;;;;;;;;;;;27.80;54.14;100608.59;4957024;28;19914;-80
2023/06/23 01:16:44;;;;;;;;;;;;;;;27.77;54.15;100612.28;5000714;28;19913;-79
2023/06/23 01:19:52;;;;;;;;;;;;;;;27.77;53.73;100600.31;4999344;28;19918;-79
2023/06/23 01:22:50;;;;;;;;;;;;;;;27.82;53.55;100606.19;5001164;28;19918;-79
2023/06/23 01:25:53;;;;;;;;;;;;;;;27.82;53.36;100605.38;4984765;28;19947;-79
2023/06/23 01:28:45;;;;;;;;;;;;;;;27.60;53.76;100602.31;4982203;28;19917;-79
2023/06/23 01:31:39;;;;;;;;;;;;;;;27.53;53.98;100608.06;4982395;28;19914;-79
2023/06/23 01:34:37;;;;;;;;;;;;;;;27.32;54.12;100602.91;4975082;28;19914;-79
2023/06/23 01:37:32;;;;;;;;;;;;;;;27.15;54.72;100600.06;4962877;28;19914;-78
2023/06/23 01:40:26;;;;;;;;;;;;;;;27.05;55.24;100597.50;4966756;28;19917;-79
2023/06/23 01:43:19;;;;;;;;;;;;;;;26.82;56.10;100587.94;4962960;28;19914;-79
2023/06/23 01:46:15;;;;;;;;;;;;;;;26.64;56.63;100586.72;4952760;28;19914;-79
2023/06/23 01:49:05;;;;;;;;;;;;;;;26.71;55.72;100584.59;4963146;28;19914;-79
2023/06/23 01:51:56;;;;;;;;;;;;;;;26.56;56.40;100588.88;4981662;28;19914;-79
2023/06/23 01:54:49;;;;;;;;;;;;;;;26.63;56.48;100590.72;4979381;28;19914;-79
2023/06/23 01:57:44;;;;;;;;;;;;;;;26.78;55.61;100590.03;4963763;28;19918;-79
2023/06/23 02:00:37;;;;;;;;;;;;;;;26.57;57.39;100603.59;4951636;29;20281;-79
2023/06/23 02:03:28;;;;;;;;;;;;;;;26.48;57.12;100606.94;4965266;28;19914;-79
2023/06/23 02:06:19;;;;;;;;;;;;;;;26.59;56.94;100613.13;4979570;28;19914;-79
2023/06/23 02:09:16;;;;;;;;;;;;;;;26.26;57.86;100614.91;4976010;28;19925;-79
2023/06/23 02:12:06;;;;;;;;;;;;;;;26.14;58.35;100609.91;4980394;28;19922;-80
2023/06/23 02:14:55;;;;;;;;;;;;;;;26.44;56.96;100597.06;4989750;28;19913;-79
2023/06/23 02:17:48;;;;;;;;;;;;;;;26.65;56.00;100596.69;4974982;28;19926;-80
2023/06/23 02:20:40;;;;;;;;;;;;;;;26.79;55.56;100588.81;4976998;28;19917;-80
2023/06/23 02:23:30;;;;;;;;;;;;;;;26.82;54.82;100584.38;4968885;28;19913;-79
2023/06/23 02:26:22;;;;;;;;;;;;;;;26.86;54.98;100582.31;4973837;28;20316;-79
2023/06/23 02:29:16;;;;;;;;;;;;;;;26.76;55.34;100572.16;4966210;28;20312;-79
2023/06/23 02:32:06;;;;;;;;;;;;;;;26.81;54.93;100571.66;4976327;28;19915;-80
2023/06/23 02:35:02;;;;;;;;;;;;;;;26.78;54.81;100567.69;4946941;29;20373;-79
2023/06/23 02:37:57;;;;;;;;;;;;;;;26.83;54.39;100564.41;4938783;28;19915;-79
2023/06/23 02:40:50;;;;;;;;;;;;;;;26.96;54.19;100564.59;4942359;29;19919;-79
2023/06/23 02:43:45;;;;;;;;;;;;;;;27.01;54.63;100566.09;4915223;29;19923;-80
2023/06/23 02:46:38;;;;;;;;;;;;;;;26.85;54.56;100563.19;4931180;29;19914;-79
2023/06/23 02:49:30;;;;;;;;;;;;;;;26.69;55.38;100561.13;4959994;28;19914;-79
2023/06/23 02:52:23;;;;;;;;;;;;;;;26.68;55.08;100563.13;4957605;28;19917;-79
2023/06/23 02:55:19;;;;;;;;;;;;;;;26.42;56.60;100552.06;4966287;28;19918;-80
2023/06/23 02:58:11;;;;;;;;;;;;;;;26.56;55.54;100551.81;4933986;29;19919;-79
2023/06/23 03:01:04;;;;;;;;;;;;;;;26.46;56.12;100544.47;4937406;29;19918;-79
2023/06/23 03:03:56;;;;;;;;;;;;;;;26.51;56.18;100550.31;4948363;29;19914;-79
2023/06/23 03:06:46;;;;;;;;;;;;;;;26.46;56.83;100552.81;4940107;29;19915;-81
2023/06/23 03:09:38;;;;;;;;;;;;;;;26.42;56.93;100555.66;4929807;29;20293;-80
2023/06/23 03:12:29;;;;;;;;;;;;;;;26.58;56.15;100563.34;4945619;29;19915;-80
2023/06/23 03:15:18;;;;;;;;;;;;;;;26.47;56.78;100557.16;4950422;28;19913;-79
2023/06/23 03:18:14;;;;;;;;;;;;;;;26.23;57.62;100551.63;4960492;28;19915;-79
2023/06/23 03:21:11;;;;;;;;;;;;;;;25.99;58.40;100547.25;4939431;28;19918;-80
2023/06/23 03:24:05;;;;;;;;;;;;;;;26.11;58.37;100541.06;4976207;28;19918;-79
2023/06/23 03:26:58;;;;;;;;;;;;;;;26.15;58.39;100535.44;5006260;23;19921;-79
2023/06/23 03:30:01;;;;;;;;;;;;;;;26.06;58.31;100540.78;4980405;28;19918;-79
2023/06/23 03:32:54;;;;;;;;;;;;;;;26.12;58.60;100539.84;4996912;28;19921;-79
2023/06/23 03:35:46;;;;;;;;;;;;;;;26.21;58.34;100536.53;4990316;28;19917;-79
2023/06/23 03:38:59;;;;;;;;;;;;;;;26.18;58.50;100543.72;4990770;28;19921;-78
2023/06/23 03:41:51;;;;;;;;;;;;;;;26.51;57.17;100550.31;4974793;28;20381;-78
2023/06/23 03:44:47;;;;;;;;;;;;;;;26.65;56.91;100563.19;4963873;28;19917;-78
2023/06/23 03:47:41;;;;;;;;;;;;;;;26.59;57.02;100556.53;4988243;28;19914;-78
2023/06/23 03:50:34;;;;;;;;;;;;;;;26.68;56.63;100556.75;4994255;28;19917;-77
2023/06/23 03:53:27;;;;;;;;;;;;;;;26.54;57.00;100557.03;4992324;28;20380;-78
2023/06/23 03:56:20;;;;;;;;;;;;;;;26.39;57.42;100545.38;4979905;28;19913;-77
2023/06/23 03:59:10;;;;;;;;;;;;;;;26.41;58.13;100556.91;4979706;28;19913;-78
2023/06/23 04:02:03;;;;;;;;;;;;;;;26.45;57.43;100556.81;4981014;28;19930;-77
2023/06/23 04:04:56;;;;;;;;;;;;;;;26.46;57.49;100552.81;4984163;28;20373;-77
2023/06/23 04:07:50;;;;;;;;;;;;;;;26.45;57.44;100551.25;4983746;28;19914;-78
2023/06/23 04:10:41;;;;;;;;;;;;;;;26.25;57.83;100554.78;4989667;28;20309;-78
2023/06/23 04:13:35;;;;;;;;;;;;;;;25.98;59.15;100552.03;4983236;28;19913;-78
2023/06/23 04:16:28;;;;;;;;;;;;;;;26.19;58.47;100541.72;4992766;28;19913;-79
2023/06/23 04:19:15;;;;;;;;;;;;;;;26.45;57.57;100538.09;4993169;28;19913;-77
2023/06/23 04:22:09;;;;;;;;;;;;;;;26.42;57.69;100544.50;4978287;28;19922;-76
2023/06/23 04:25:01;;;;;;;;;;;;;;;26.66;57.05;100551.63;4972807;28;19913;-77
2023/06/23 04:27:54;;;;;;;;;;;;;;;26.76;56.53;100549.84;4967156;28;19917;-77
2023/06/23 04:30:47;;;;;;;;;;;;;;;26.88;55.78;100535.25;4963874;28;20380;-79
2023/06/23 04:33:38;;;;;;;;;;;;;;;26.83;55.85;100538.50;4952908;28;19913;-78
2023/06/23 04:36:32;;;;;;;;;;;;;;;26.76;55.89;100547.03;4953569;28;19914;-78
2023/06/23 04:39:31;;;;;;;;;;;;;;;26.91;55.95;100539.19;4954119;28;19914;-78
2023/06/23 04:42:25;;;;;;;;;;;;;;;26.10;57.57;100542.28;4972343;28;19918;-77
2023/06/23 04:45:16;;;;;;;;;;;;;;;25.55;59.72;100540.78;4948090;28;19914;-79
2023/06/23 04:48:09;;;;;;;;;;;;;;;25.66;60.49;100548.19;4961552;28;19914;-78
2023/06/23 04:51:00;;;;;;;;;;;;;;;26.14;59.12;100548.59;4971396;28;19914;-79
2023/06/23 04:53:53;;;;;;;;;;;;;;;26.43;58.51;100559.25;4956315;28;19913;-78
2023/06/23 04:56:45;;;;;;;;;;;;;;;26.61;58.55;100559.69;4949314;28;19914;-78
2023/06/23 04:59:39;;;;;;;;;;;;;;;26.78;58.40;100570.50;4967136;28;19914;-78
2023/06/23 05:02:33;;;;;;;;;;;;;;;26.88;57.93;100579.09;4950764;28;19918;-77
2023/06/23 05:05:30;;;;;;;;;;;;;;;26.96;58.24;100578.56;4961782;28;19914;-77
2023/06/23 05:08:23;;;;;;;;;;;;;;;27.04;57.95;100579.97;4958607;28;19915;-78
2023/06/23 05:11:16;;;;;;;;;;;;;;;27.10;58.05;100586.63;4955382;28;20293;-78
2023/06/23 05:14:09;;;;;;;;;;;;;;;27.18;57.63;100588.03;4955073;28;19914;-77
2023/06/23 05:17:02;;;;;;;;;;;;;;;27.23;57.37;100595.09;4954606;28;19923;-78
2023/06/23 05:19:52;;;;;;;;;;;;;;;27.24;57.45;100585.50;4961651;28;20381;-78
2023/06/23 05:22:45;;;;;;;;;;;;;;;27.30;57.06;100588.59;4973580;28;20308;-78
2023/06/23 05:25:36;;;;;;;;;;;;;;;27.32;57.13;100586.16;4958424;28;19914;-78
2023/06/23 05:28:31;;;;;;;;;;;;;;;27.35;56.99;100585.28;4935321;28;19929;-77
2023/06/23 05:31:23;;;;;;;;;;;;;;;27.37;57.16;100582.84;4960404;28;20313;-76
2023/06/23 05:34:13;;;;;;;;;;;;;;;27.41;57.25;100577.97;4941844;28;19929;-76
2023/06/23 05:37:06;;;;;;;;;;;;;;;27.41;57.27;100575.97;4961026;28;19914;-77
2023/06/23 05:40:00;;;;;;;;;;;;;;;27.46;56.75;100572.66;4949979;28;19918;-77
2023/06/23 05:42:51;;;;;;;;;;;;;;;27.48;56.81;100570.19;4967689;28;19914;-78
2023/06/23 05:45:43;;;;;;;;;;;;;;;27.51;56.46;100571.38;4973790;28;19918;-77
2023/06/23 05:48:37;;;;;;;;;;;;;;;27.54;56.53;100576.09;4951986;28;20381;-78
2023/06/23 05:51:32;;;;;;;;;;;;;;;27.55;56.78;100566.50;4948060;28;20305;-78
2023/06/23 05:54:23;;;;;;;;;;;;;;;27.57;56.48;100564.84;4964770;28;19918;-77
2023/06/23 05:57:19;;;;;;;;;;;;;;;27.60;56.68;100565.97;4962290;28;20289;-77
2023/06/23 06:00:13;;;;;;;;;;;;;;;27.61;56.08;100564.75;4975774;28;19914;-78
2023/06/23 06:03:05;;;;;;;;;;;;;;;27.64;55.98;100570.25;4976422;28;19914;-76
2023/06/23 06:05:58;;;;;;;;;;;;;;;27.68;56.36;100563.81;4960990;28;19914;-77
2023/06/23 06:08:51;;;;;;;;;;;;;;;27.69;56.07;100571.75;4976636;28;19914;-77
2023/06/23 06:11:41;;;;;;;;;;;;;;;27.73;55.54;100574.47;4962282;28;19913;-78
2023/06/23 06:14:34;;;;;;;;;;;;;;;27.75;55.36;100570.00;4965738;28;19918;-77
2023/06/23 06:17:25;;;;;;;;;;;;;;;27.78;55.26;100566.34;4949747;28;19914;-76
2023/06/23 06:20:17;;;;;;;;;;;;;;;27.80;55.26;100563.88;4987841;28;20380;-78
2023/06/23 06:23:12;;;;;;;;;;;;;;;27.82;54.98;100564.25;4981514;28;19914;-78
2023/06/23 06:26:04;;;;;;;;;;;;;;;27.84;55.47;100563.78;4968411;28;20597;-78
2023/06/23 06:28:57;;;;;;;;;;;;;;;27.86;55.44;100564.16;4980112;28;19914;-78
2023/06/23 06:31:47;;;;;;;;;;;;;;;27.88;55.26;100568.09;4978055;28;19914;-77
2023/06/23 06:34:42;;;;;;;;;;;;;;;27.90;54.84;100571.22;4975331;28;19914;-76
2023/06/23 06:37:35;;;;;;;;;;;;;;;27.94;54.33;100566.31;4992732;28;19914;-78
2023/06/23 06:40:26;;;;;;;;;;;;;;;27.96;53.54;100569.47;4976907;28;20388;-78
2023/06/23 06:43:18;;;;;;;;;;;;;;;27.99;52.92;100567.81;4971073;28;19918;-78
2023/06/23 06:46:11;;;;;;;;;;;;;;;28.04;52.47;100567.28;4969744;28;19918;-77
2023/06/23 06:49:04;;;;;;;;;;;;;;;28.06;52.71;100568.44;4975902;28;19914;-77
2023/06/23 06:51:56;;;;;;;;;;;;;;;28.07;52.74;100563.63;4979410;28;19914;-76
2023/06/23 06:54:48;;;;;;;;;;;;;;;28.09;52.98;100570.34;4976902;28;19914;-77
2023/06/23 06:57:37;;;;;;;;;;;;;;;28.13;52.69;100566.72;4975112;28;20328;-78
2023/06/23 07:00:29;;;;;;;;;;;;;;;28.14;53.34;100568.28;4992368;28;19918;-79
2023/06/23 07:03:21;;;;;;;;;;;;;;;28.15;53.51;100564.25;4976676;28;19914;-77
2023/06/23 07:06:13;;;;;;;;;;;;;;;28.19;53.56;100565.72;4971650;28;19914;-77
2023/06/23 07:09:04;;;;;;;;;;;;;;;28.21;53.69;100568.09;4967848;28;19914;-78
2023/06/23 07:11:56;;;;;;;;;;;;;;;28.22;53.58;100572.47;4971897;28;19914;-77
2023/06/23 07:14:48;;;;;;;;;;;;;;;28.23;53.18;100560.06;4972059;28;19914;-78
2023/06/23 07:17:40;;;;;;;;;;;;;;;28.26;53.47;100567.56;4971939;28;19913;-76
2023/06/23 07:20:32;;;;;;;;;;;;;;;28.29;53.23;100563.91;4988317;28;19917;-77
2023/06/23 07:23:24;;;;;;;;;;;;;;;28.31;54.08;100565.00;4955136;28;19918;-76
2023/06/23 07:26:16;;;;;;;;;;;;;;;28.33;53.33;100573.75;4970021;28;19918;-77
2023/06/23 07:29:08;;;;;;;;;;;;;;;28.36;53.61;100564.47;4968822;28;20304;-77
2023/06/23 07:31:59;;;;;;;;;;;;;;;28.38;53.84;100572.44;4974725;28;20309;-76
2023/06/23 07:34:51;;;;;;;;;;;;;;;28.40;53.59;100564.38;4976889;28;19914;-74
2023/06/23 07:37:41;;;;;;;;;;;;;;;28.42;53.35;100561.94;4971015;28;19930;-77
2023/06/23 07:40:33;;;;;;;;;;;;;;;28.43;53.68;100564.28;4962592;28;19918;-77
2023/06/23 07:43:25;;;;;;;;;;;;;;;28.45;53.70;100556.22;4969583;28;19914;-77
2023/06/23 07:46:14;;;;;;;;;;;;;;;28.48;53.93;100560.16;4971552;28;19922;-77
2023/06/23 07:49:07;;;;;;;;;;;;;;;28.51;53.71;100553.69;4971910;28;19914;-78
2023/06/23 07:52:03;;;;;;;;;;;;;;;28.52;53.70;100560.06;4972022;28;19914;-77
2023/06/23 07:54:55;;;;;;;;;;;;;;;28.53;53.24;100551.25;4981782;28;19914;-78
2023/06/23 07:57:44;;;;;;;;;;;;;;;28.56;53.67;100566.34;4967117;28;19906;-78
2023/06/23 08:00:36;;;;;;;;;;;;;;;28.57;53.67;100562.31;4982730;28;19945;-79
2023/06/23 08:03:28;;;;;;;;;;;;;;;28.58;53.54;100564.69;4996209;28;19918;-77
2023/06/23 08:06:23;;;;;;;;;;;;;;;28.57;53.28;100563.09;4996292;28;19921;-77
2023/06/23 08:09:15;;;;;;;;;;;;;;;28.57;53.64;100568.72;4981389;28;19913;-78
2023/06/23 08:12:07;;;;;;;;;;;;;;;28.61;53.57;100569.38;4995579;28;19913;-77
2023/06/23 08:14:59;;;;;;;;;;;;;;;28.62;53.28;100568.16;4986735;28;19914;-78
2023/06/23 08:17:51;;;;;;;;;;;;;;;28.65;53.00;100564.47;4981192;28;20289;-78
2023/06/23 08:20:43;;;;;;;;;;;;;;;28.67;53.03;100559.22;4971992;28;19918;-77
2023/06/23 08:23:35;;;;;;;;;;;;;;;28.68;52.55;100560.81;4996171;28;19914;-77
2023/06/23 08:26:26;;;;;;;;;;;;;;;28.71;52.81;100570.31;4969354;28;19915;-77
2023/06/23 08:29:18;;;;;;;;;;;;;;;28.71;52.59;100564.72;4984388;28;19915;-78
2023/06/23 08:32:08;;;;;;;;;;;;;;;28.70;52.99;100571.56;4971712;28;19914;-78
2023/06/23 08:35:00;;;;;;;;;;;;;;;28.71;52.97;100567.50;4973698;28;19922;-78
2023/06/23 08:37:52;;;;;;;;;;;;;;;28.73;52.92;100565.09;4970740;28;19914;-78
2023/06/23 08:40:47;;;;;;;;;;;;;;;28.71;52.90;100571.09;4976530;28;19918;-78
2023/06/23 08:43:43;;;;;;;;;;;;;;;28.75;52.76;100565.47;4998297;28;19913;-77
2023/06/23 08:46:35;;;;;;;;;;;;;;;28.76;52.53;100569.81;4970516;28;19914;-77
2023/06/23 08:49:29;;;;;;;;;;;;;;;28.77;52.21;100557.38;4994474;28;19914;-78
2023/06/23 08:52:21;;;;;;;;;;;;;;;28.78;52.28;100562.53;4979192;28;19914;-79
2023/06/23 08:55:11;;;;;;;;;;;;;;;28.78;52.16;100556.94;4978765;28;20861;-81
2023/06/23 08:58:04;;;;;;;;;;;;;;;28.81;52.03;100556.03;4964830;28;19918;-79
2023/06/23 09:00:56;;;;;;;;;;;;;;;28.80;51.97;100560.06;4970722;28;19918;-79
2023/06/23 09:03:48;;;;;;;;;;;;;;;28.86;52.16;100551.91;4971201;28;20385;-79
2023/06/23 09:06:40;;;;;;;;;;;;;;;28.88;51.69;100546.66;4965837;28;19914;-77
2023/06/23 09:09:29;;;;;;;;;;;;;;;28.90;51.15;100533.78;4969556;28;19914;-78
2023/06/23 09:12:20;;;;;;;;;;;;;;;28.94;51.68;100538.50;4961775;28;19914;-77
2023/06/23 09:15:14;;;;;;;;;;;;;;;28.94;51.51;100541.31;4975157;28;20304;-79
2023/06/23 09:18:10;;;;;;;;;;;;;;;28.94;51.78;100544.88;4973727;28;19914;-80
2023/06/23 09:21:03;;;;;;;;;;;;;;;28.91;51.59;100543.75;4973677;28;19926;-78
2023/06/23 09:24:02;;;;;;;;;;;;;;;28.91;51.67;100546.56;4969226;28;19914;-79
2023/06/23 09:26:52;;;;;;;;;;;;;;;28.94;51.24;100547.69;4985092;23;19930;-78
2023/06/23 09:29:42;;;;;;;;;;;;;;;29.00;51.14;100545.13;4954711;28;19918;-78
2023/06/23 09:32:32;;;;;;;;;;;;;;;29.02;51.04;100545.44;4944470;29;19915;-78
2023/06/23 09:35:24;;;;;;;;;;;;;;;29.05;50.96;100539.75;4941244;29;19914;-79
2023/06/23 09:38:16;;;;;;;;;;;;;;;29.04;50.78;100535.38;4953077;29;19918;-78
2023/06/23 09:41:10;;;;;;;;;;;;;;;29.05;50.84;100538.97;4955550;28;19919;-78
2023/06/23 09:43:59;;;;;;;;;;;;;;;29.05;50.86;100548.16;4951311;28;19915;-78
2023/06/23 09:46:58;;;;;;;;;;;;;;;29.13;50.80;100543.13;4939198;29;20377;-78
2023/06/23 09:49:49;;;;;;;;;;;;;;;29.14;50.58;100550.28;4952055;29;19915;-78
2023/06/23 09:52:36;;;;;;;;;;;;;;;29.16;50.55;100547.81;4939240;29;19915;-78
2023/06/23 09:55:22;;;;;;;;;;;;;;;29.17;50.43;100543.78;4939672;29;20381;-78
2023/06/23 09:58:15;;;;;;;;;;;;;;;29.19;50.34;100546.94;4941001;29;19915;-78
2023/06/23 10:01:08;;;;;;;;;;;;;;;29.20;50.19;100546.50;4951706;29;20308;-81
2023/06/23 10:04:00;;;;;;;;;;;;;;;29.21;50.26;100550.84;4938020;29;19914;-78
2023/06/23 10:06:49;;;;;;;;;;;;;;;29.23;49.98;100556.00;4944571;29;20297;-79
2023/06/23 10:09:50;;;;;;;;;;;;;;;29.24;50.28;100560.38;4944232;29;19915;-78
2023/06/23 10:12:43;;;;;;;;;;;;;;;29.23;49.97;100553.22;4951774;29;19919;-78
2023/06/23 10:15:32;;;;;;;;;;;;;;;29.17;50.34;100550.19;4938688;29;20117;-79
2023/06/23 10:18:24;;;;;;;;;;;;;;;29.19;50.29;100552.53;4926375;29;19919;-78
2023/06/23 10:21:17;;;;;;;;;;;;;;;29.18;50.38;100550.97;4954836;29;19922;-78
2023/06/23 10:24:06;;;;;;;;;;;;;;;29.17;50.26;100549.38;4929763;29;20310;-78
2023/06/23 10:26:58;;;;;;;;;;;;;;;29.16;50.22;100550.63;4943859;29;19914;-78
2023/06/23 10:29:51;;;;;;;;;;;;;;;29.13;50.15;100554.31;4955539;28;19915;-78
2023/06/23 10:32:46;;;;;;;;;;;;;;;29.07;50.40;100556.09;4945710;29;19915;-77
2023/06/23 10:35:33;;;;;;;;;;;;;;;29.06;50.39;100551.72;4935857;29;19915;-78
2023/06/23 10:38:28;;;;;;;;;;;;;;;29.04;50.47;100562.59;4920541;29;19923;-79
2023/06/23 10:41:16;;;;;;;;;;;;;;;29.07;50.40;100556.09;4921098;29;19926;-78
2023/06/23 10:44:05;;;;;;;;;;;;;;;29.13;50.22;100557.13;4937554;29;19918;-79
2023/06/23 10:46:58;;;;;;;;;;;;;;;29.17;50.22;100557.78;4935453;29;19919;-79
2023/06/23 10:49:51;;;;;;;;;;;;;;;29.18;50.48;100559.38;4927312;29;20305;-79
2023/06/23 10:52:42;;;;;;;;;;;;;;;29.19;50.56;100558.94;4951745;28;19915;-78
2023/06/23 10:55:41;;;;;;;;;;;;;;;29.16;50.35;100564.63;4945838;29;19914;-79
2023/06/23 10:58:46;;;;;;;;;;;;;;;29.18;50.69;100559.38;4944619;28;19915;-79
2023/06/23 11:01:56;;;;;;;;;;;;;;;29.21;50.20;100555.66;4939447;29;19922;-78
2023/06/23 11:04:53;;;;;;;;;;;;;;;29.11;50.96;100553.97;4938388;29;19919;-79
2023/06/23 11:08:04;;;;;;;;;;;;;;;28.79;50.44;100549.34;4946144;28;19915;-78
2023/06/23 11:10:59;;;;;;;;;;;;;;;28.78;49.91;100556.16;4935414;29;19914;-78
2023/06/23 11:13:52;;;;;;;;;;;;;;;28.82;49.34;100548.44;4920671;29;19919;-78
2023/06/23 11:16:43;;;;;;;;;;;;;;;28.80;48.51;100548.88;4941860;29;19919;-79
2023/06/23 11:19:37;;;;;;;;;;;;;;;29.03;47.30;100549.81;4930167;29;19915;-78
2023/06/23 11:22:30;;;;;;;;;;;;;;;28.72;48.04;100546.72;4938846;29;19922;-78
2023/06/23 11:25:33;;;;;;;;;;;;;;;28.57;47.77;100557.50;4942929;28;19915;-78
2023/06/23 11:28:33;;;;;;;;;;;;;;;28.57;47.15;100551.13;4926140;29;19915;-78
2023/06/23 11:31:27;;;;;;;;;;;;;;;28.67;46.83;100550.81;4938357;29;20379;-78
2023/06/23 11:34:19;;;;;;;;;;;;;;;28.54;45.44;100550.00;4922581;29;19915;-79
2023/06/23 11:37:09;;;;;;;;;;;;;;;28.24;44.83;100556.78;4924333;29;19914;-78
2023/06/23 11:40:00;;;;;;;;;;;;;;;28.59;43.57;100560.66;4930936;29;19923;-79
2023/06/23 11:42:47;;;;;;;;;;;;;;;28.73;43.97;100551.09;4912141;29;19919;-79
2023/06/23 11:45:37;;;;;;;;;;;;;;;29.05;41.19;100559.38;4933113;29;20467;-79
2023/06/23 11:48:32;;;;;;;;;;;;;;;29.07;42.49;100556.88;4916119;29;20366;-79
2023/06/23 11:51:24;;;;;;;;;;;;;;;28.80;43.72;100545.31;4911785;29;19919;-79
2023/06/23 11:54:14;;;;;;;;;;;;;;;28.90;42.71;100539.38;4919877;29;19915;-79
2023/06/23 11:57:07;;;;;;;;;;;;;;;28.76;43.18;100528.59;4942579;29;19915;-79
2023/06/23 11:59:56;;;;;;;;;;;;;;;28.65;43.17;100530.13;4927189;29;19915;-79
2023/06/23 12:02:50;;;;;;;;;;;;;;;28.88;42.67;100525.06;4919077;29;20380;-79
2023/06/23 12:05:45;;;;;;;;;;;;;;;29.18;42.15;100529.34;4921153;29;19915;-79
2023/06/23 12:08:38;;;;;;;;;;;;;;;28.99;42.59;100521.94;4932283;29;19918;-79
2023/06/23 12:11:29;;;;;;;;;;;;;;;28.72;43.08;100529.94;4935289;29;19915;-79
2023/06/23 12:14:19;;;;;;;;;;;;;;;28.94;42.00;100528.09;4921206;29;19914;-79
2023/06/23 12:17:14;;;;;;;;;;;;;;;29.11;42.07;100521.16;4926908;29;19915;-79
2023/06/23 12:20:06;;;;;;;;;;;;;;;29.02;42.34;100523.84;4911028;29;19923;-79
2023/06/23 12:22:56;;;;;;;;;;;;;;;29.21;41.83;100517.22;4919170;29;19918;-79
2023/06/23 12:25:46;;;;;;;;;;;;;;;29.40;41.28;100515.50;4941950;28;19914;-79
2023/06/23 12:28:34;;;;;;;;;;;;;;;29.39;40.41;100519.53;4928071;29;19914;-79
2023/06/23 12:31:30;;;;;;;;;;;;;;;29.40;40.68;100523.91;4955436;29;19914;-79
2023/06/23 12:34:20;;;;;;;;;;;;;;;29.27;41.36;100523.06;4955442;28;20389;-79
2023/06/23 12:37:14;;;;;;;;;;;;;;;29.51;37.57;100518.72;4934834;29;19918;-79
2023/06/23 12:40:04;;;;;;;;;;;;;;;29.46;41.14;100510.88;4951693;28;19914;-79
2023/06/23 12:42:55;;;;;;;;;;;;;;;29.31;40.60;100513.34;4929738;29;19922;-79
2023/06/23 12:45:46;;;;;;;;;;;;;;;29.52;40.81;100511.88;4927989;29;19918;-79
2023/06/23 12:48:36;;;;;;;;;;;;;;;29.77;38.94;100508.25;4941528;28;19914;-79
2023/06/23 12:51:37;;;;;;;;;;;;;;;29.90;39.35;100505.47;4941101;29;19915;-79
2023/06/23 12:54:29;;;;;;;;;;;;;;;30.11;39.00;100493.50;4951440;28;20373;-79
2023/06/23 12:57:19;;;;;;;;;;;;;;;30.30;38.97;100488.81;4957767;28;19914;-79
2023/06/23 13:00:11;;;;;;;;;;;;;;;30.28;39.98;100480.84;4926628;29;19914;-79
2023/06/23 13:03:00;;;;;;;;;;;;;;;30.56;36.95;100484.66;4930922;28;20389;-78
2023/06/23 13:05:52;;;;;;;;;;;;;;;30.63;36.52;100498.41;4944262;28;19914;-79
2023/06/23 13:08:41;;;;;;;;;;;;;;;30.57;38.44;100489.84;4939124;29;19914;-79
2023/06/23 13:11:33;;;;;;;;;;;;;;;30.85;35.29;100490.75;4959043;28;19918;-78
2023/06/23 13:14:25;;;;;;;;;;;;;;;30.73;38.97;100477.59;4937050;29;19914;-79
2023/06/23 13:17:15;;;;;;;;;;;;;;;30.92;38.53;100481.28;4956790;29;19914;-79
2023/06/23 13:20:07;;;;;;;;;;;;;;;30.53;39.26;100480.75;4941628;29;20377;-79
2023/06/23 13:22:59;;;;;;;;;;;;;;;30.32;40.26;100466.72;4940003;29;19919;-78
2023/06/23 13:25:51;;;;;;;;;;;;;;;30.31;39.64;100468.72;4926771;29;19926;-79
2023/06/23 13:28:41;;;;;;;;;;;;;;;30.05;40.87;100475.69;4934895;29;19918;-79
2023/06/23 13:31:33;;;;;;;;;;;;;;;29.80;41.83;100468.09;4918455;29;19923;-79
2023/06/23 13:34:23;;;;;;;;;;;;;;;29.27;42.36;100448.22;4924078;29;19919;-79
2023/06/23 13:37:15;;;;;;;;;;;;;;;29.43;42.65;100469.75;4942819;29;19914;-79
2023/06/23 13:40:04;;;;;;;;;;;;;;;29.81;41.62;100466.88;4926701;29;19915;-79
2023/06/23 13:42:57;;;;;;;;;;;;;;;29.81;41.81;100463.28;4918536;29;19918;-80
2023/06/23 13:45:49;;;;;;;;;;;;;;;29.54;41.61;100464.56;4927901;29;19914;-79
2023/06/23 13:48:41;;;;;;;;;;;;;;;29.75;41.07;100466.66;4911008;29;19918;-79
2023/06/23 13:51:31;;;;;;;;;;;;;;;30.28;37.51;100468.84;4925263;29;19923;-79
2023/06/23 13:54:23;;;;;;;;;;;;;;;30.38;39.05;100467.66;4920890;29;19914;-79
2023/06/23 13:57:14;;;;;;;;;;;;;;;30.23;38.97;100467.41;4939760;29;19914;-79
2023/06/23 14:00:05;;;;;;;;;;;;;;;29.99;39.47;100469.88;4925680;29;19922;-79
2023/06/23 14:02:51;;;;;;;;;;;;;;;29.82;39.27;100465.63;4940826;29;19922;-79
2023/06/23 14:05:41;;;;;;;;;;;;;;;30.32;36.67;100467.50;4929394;29;19922;-79
2023/06/23 14:08:35;;;;;;;;;;;;;;;30.49;37.79;100465.28;4937481;29;19918;-79
2023/06/23 14:11:28;;;;;;;;;;;;;;;30.63;36.38;100452.75;4936759;28;19914;-79
2023/06/23 14:14:18;;;;;;;;;;;;;;;30.87;36.75;100451.00;4926776;29;19914;-79
2023/06/23 14:17:16;;;;;;;;;;;;;;;31.28;35.84;100453.38;4912769;29;19917;-78
2023/06/23 14:20:07;;;;;;;;;;;;;;;31.13;35.36;100452.38;4934116;29;19914;-79
2023/06/23 14:22:59;;;;;;;;;;;;;;;31.18;36.04;100457.41;4931528;29;20394;-78
2023/06/23 14:25:49;;;;;;;;;;;;;;;31.30;34.95;100453.69;4926551;28;19914;-78
2023/06/23 14:28:40;;;;;;;;;;;;;;;31.07;36.72;100459.84;4945432;28;19914;-79
2023/06/23 14:31:31;;;;;;;;;;;;;;;30.95;36.64;100449.47;4945341;29;19922;-79
2023/06/23 14:34:21;;;;;;;;;;;;;;;30.56;37.79;100451.78;4934652;29;19940;-79
2023/06/23 14:37:13;;;;;;;;;;;;;;;30.54;37.42;100447.84;4951939;28;19918;-78
2023/06/23 14:40:05;;;;;;;;;;;;;;;30.48;38.12;100444.06;4942539;28;20393;-78
2023/06/23 14:42:57;;;;;;;;;;;;;;;30.00;39.00;100442.59;4945528;28;19918;-79
2023/06/23 14:45:51;;;;;;;;;;;;;;;29.48;39.71;100441.16;4939459;29;19918;-78